Map

Track Data

SID SEASON NUMBER BASIN SUBBASIN NAME ISO_TIME NATURE LAT LON WMO_WIND WMO_PRES WMO_AGENCY TRACK_TYPE DIST2LAND LANDFALL IFLAG USA_AGENCY USA_ATCF_ID USA_LAT USA_LON USA_RECORD USA_STATUS USA_WIND USA_PRES USA_SSHS USA_R34_NE USA_R34_SE USA_R34_SW USA_R34_NW USA_R50_NE USA_R50_SE USA_R50_SW USA_R50_NW USA_R64_NE USA_R64_SE USA_R64_SW USA_R64_NW USA_POCI USA_ROCI USA_RMW USA_EYE TOKYO_LAT TOKYO_LON TOKYO_GRADE TOKYO_WIND TOKYO_PRES TOKYO_R50_DIR TOKYO_R50_LONG TOKYO_R50_SHORT TOKYO_R30_DIR TOKYO_R30_LONG TOKYO_R30_SHORT TOKYO_LAND CMA_LAT CMA_LON CMA_CAT CMA_WIND CMA_PRES HKO_LAT HKO_LON HKO_CAT HKO_WIND HKO_PRES NEWDELHI_LAT NEWDELHI_LON NEWDELHI_GRADE NEWDELHI_WIND NEWDELHI_PRES NEWDELHI_CI NEWDELHI_DP NEWDELHI_POCI REUNION_LAT REUNION_LON REUNION_TYPE REUNION_WIND REUNION_PRES REUNION_TNUM REUNION_CI REUNION_RMW REUNION_R34_NE REUNION_R34_SE REUNION_R34_SW REUNION_R34_NW REUNION_R50_NE REUNION_R50_SE REUNION_R50_SW REUNION_R50_NW REUNION_R64_NE REUNION_R64_SE REUNION_R64_SW REUNION_R64_NW BOM_LAT BOM_LON BOM_TYPE BOM_WIND BOM_PRES BOM_TNUM BOM_CI BOM_RMW BOM_R34_NE BOM_R34_SE BOM_R34_SW BOM_R34_NW BOM_R50_NE BOM_R50_SE BOM_R50_SW BOM_R50_NW BOM_R64_NE BOM_R64_SE BOM_R64_SW BOM_R64_NW BOM_ROCI BOM_POCI BOM_EYE BOM_POS_METHOD BOM_PRES_METHOD NADI_LAT NADI_LON NADI_CAT NADI_WIND NADI_PRES WELLINGTON_LAT WELLINGTON_LON WELLINGTON_WIND WELLINGTON_PRES DS824_LAT DS824_LON DS824_STAGE DS824_WIND DS824_PRES TD9636_LAT TD9636_LON TD9636_STAGE TD9636_WIND TD9636_PRES TD9635_LAT TD9635_LON TD9635_WIND TD9635_PRES TD9635_ROCI NEUMANN_LAT NEUMANN_LON NEUMANN_CLASS NEUMANN_WIND NEUMANN_PRES MLC_LAT MLC_LON MLC_CLASS MLC_WIND MLC_PRES USA_GUST BOM_GUST BOM_GUST_PER REUNION_GUST REUNION_GUST_PER USA_SEAHGT USA_SEARAD_NE USA_SEARAD_SE USA_SEARAD_SW USA_SEARAD_NW STORM_SPEED STORM_DIR
1969225N21090 1969 55 NI BB NOT_NAMED 1969-08-12 18:00:00 TS 20.9000 89.9000 main 101 98 O________O____ jtwc_io IO061969 20.9000 89.9000 -1 20.9000 89.9000 TC 1 306
1969225N21090 1969 55 NI BB NOT_NAMED 1969-08-12 21:00:00 TS 20.9400 89.8450 main 98 84 P________P____ IO061969 20.9400 89.8450 -1 20.9400 89.8450 TC 2 299
1969225N21090 1969 55 NI BB NOT_NAMED 1969-08-13 00:00:00 TS 21.0000 89.7000 main 84 63 O________O____ jtwc_io IO061969 21.0000 89.7000 -1 21.0000 89.7000 TC 25 4 290
1969225N21090 1969 55 NI BB NOT_NAMED 1969-08-13 03:00:00 TS 21.0933 89.4022 main 63 44 P________PO___ IO061969 21.0925 89.4025 -1 21.0925 89.4025 TC 25 21.1000 89.4000 1 7 287
1969225N21090 1969 55 NI BB NOT_NAMED 1969-08-13 06:00:00 TS 21.2020 88.9967 main 44 35 O________OP___ jtwc_io IO061969 21.2000 89.0000 -1 21.2000 89.0000 TC 25 21.2100 88.9836 1 8 285
1969225N21090 1969 55 NI BB NOT_NAMED 1969-08-13 09:00:00 TS 21.3043 88.5591 main 35 22 P________PP___ IO061969 21.3000 88.5575 -1 21.3000 88.5575 TC 25 21.3157 88.5636 1 8 284
1969225N21090 1969 55 NI BB NOT_NAMED 1969-08-13 12:00:00 TS 21.4045 88.1122 main 24 22 O________OP___ jtwc_io IO061969 21.4000 88.1000 -1 21.4000 88.1000 TC 25 21.4135 88.1367 1 8 283
1969225N21090 1969 55 NI BB NOT_NAMED 1969-08-13 15:00:00 TS 21.4948 87.7049 main 22 0 P________PO___ IO061969 21.4922 87.7073 -1 21.4922 87.7073 TC 25 21.5000 87.7000 3 8 284
1969225N21090 1969 55 NI BB NOT_NAMED 1969-08-13 18:00:00 TS 21.5923 87.2841 main 0 0 O________OP___ jtwc_io IO061969 21.6000 87.3000 -1 21.6000 87.3000 TC 25 21.5770 87.2522 3 9 284
1969225N21090 1969 55 NI BB NOT_NAMED 1969-08-13 21:00:00 TS 21.7125 86.7995 main 0 0 P________PP___ IO061969 21.7351 86.8000 -1 21.7351 86.8000 TC 25 21.6673 86.7985 3 9 287
1969225N21090 1969 55 NI BB NOT_NAMED 1969-08-14 00:00:00 TS 21.8663 86.3152 main 0 0 O________OP___ jtwc_io IO061969 21.9000 86.3000 -1 21.9000 86.3000 TC 25 21.7989 86.3456 3 9 291
1969225N21090 1969 55 NI BB NOT_NAMED 1969-08-14 03:00:00 TS 22.0365 85.8947 main 0 0 P________PO___ IO061969 22.0547 85.8920 -1 22.0547 85.8920 TC 25 22.0000 85.9000 1 9 301
1969225N21090 1969 55 NI BB NOT_NAMED 1969-08-14 06:00:00 TS 22.3142 85.4990 main 0 0 O________OP___ jtwc_io IO061969 22.3000 85.5000 -1 22.3000 85.5000 TC 25 22.3427 85.4971 1 10 313
1969225N21090 1969 55 NI BB NOT_NAMED 1969-08-14 09:00:00 TS 22.7445 85.0707 main 0 0 P________PP___ IO061969 22.7424 85.0579 -1 22.7424 85.0579 TC 25 22.7485 85.0962 1 12 317
1969225N21090 1969 55 NI BB NOT_NAMED 1969-08-14 12:00:00 TS 23.1850 84.6240 main 0 0 O________OP___ jtwc_io IO061969 23.2000 84.6000 -1 23.2000 84.6000 TC 25 23.1551 84.6721 1 11 313
1969225N21090 1969 55 NI BB NOT_NAMED 1969-08-14 15:00:00 TS 23.5064 84.1865 main 0 0 P________PO___ IO061969 23.5096 84.1798 -1 23.5096 84.1798 TC 25 23.5000 84.2000 1 10 300
1969225N21090 1969 55 NI BB NOT_NAMED 1969-08-14 18:00:00 TS 23.6910 83.6760 main 0 0 O________OP___ jtwc_io IO061969 23.7000 83.7000 -1 23.7000 83.7000 TC 25 23.6732 83.6281 1 11 284
1969225N21090 1969 55 NI BB NOT_NAMED 1969-08-14 21:00:00 TS 23.7605 83.0469 main 0 0 P________PP___ IO061969 23.7502 83.0642 -1 23.7502 83.0642 TC 25 23.7810 83.0124 1 12 276
1969225N21090 1969 55 NI BB NOT_NAMED 1969-08-15 00:00:00 TS 23.8244 82.3969 main 0 0 O________OP___ jtwc_io IO061969 23.8000 82.4000 -1 23.8000 82.4000 TC 25 23.8731 82.3906 1 12 282
1969225N21090 1969 55 NI BB NOT_NAMED 1969-08-15 03:00:00 TS 24.0082 81.8134 main 0 0 P________PO___ IO061969 24.0123 81.8201 -1 24.0123 81.8201 TC 25 24.0000 81.8000 1 11 295
1969225N21090 1969 55 NI BB NOT_NAMED 1969-08-15 06:00:00 TS 24.2877 81.2993 main 0 0 O________OP___ jtwc_io IO061969 24.3000 81.3000 -1 24.3000 81.3000 TC 25 24.2631 81.2980 1 11 303
1969225N21090 1969 55 NI BB NOT_NAMED 1969-08-15 09:00:00 TS 24.5926 80.8378 main 0 0 P________PP___ IO061969 24.6072 80.8424 -1 24.6072 80.8424 TC 25 24.5633 80.8287 1 10 306
1969225N21090 1969 55 NI BB NOT_NAMED 1969-08-15 12:00:00 TS 24.8857 80.3900 main 0 0 O________OP___ jtwc_io IO061969 24.9000 80.4000 -1 24.9000 80.4000 TC 25 24.8570 80.3699 1 10 302
1969225N21090 1969 55 NI BB NOT_NAMED 1969-08-15 15:00:00 TS 25.1249 79.9100 main 0 0 P________PO___ IO061969 25.1373 79.9150 -1 25.1373 79.9150 TC 25 25.1000 79.9000 1 10 294
1969225N21090 1969 55 NI BB NOT_NAMED 1969-08-15 18:00:00 TS 25.2838 79.4011 main 0 0 O________OP___ jtwc_io IO061969 25.3000 79.4000 -1 25.3000 79.4000 TC 25 25.2595 79.4026 1 10 284
1969225N21090 1969 55 NI BB NOT_NAMED 1969-08-15 21:00:00 TS 25.3633 78.8677 main 0 0 P________PP___ IO061969 25.3754 78.8574 -1 25.3754 78.8574 TC 25 25.3472 78.8814 1 10 276
1969225N21090 1969 55 NI BB NOT_NAMED 1969-08-16 00:00:00 TS 25.3931 78.3223 main 0 0 O________OP___ jtwc_io IO061969 25.4000 78.3000 -1 25.4000 78.3000 TC 25 25.3863 78.3445 1 10 272
1969225N21090 1969 55 NI AS NOT_NAMED 1969-08-16 03:00:00 NR 25.4000 77.8000 main 0 __________O___ IO061969 -1 TC 25.4000 77.8000 1 9 271

About IBTrACS Database

This database is a web-friendly format of International Best Track Archive for Climate Stewardship (IBTrACS), a global best track data archive curated by NOAA dating back to 1842.

Updated: 2021-10-08